createdAt,value
2024-03-30T00:01:29.660Z,89.3
2024-03-30T00:06:39.910Z,88.6
2024-03-30T00:11:39.831Z,87.7
2024-03-30T00:16:39.953Z,87
2024-03-30T00:22:29.469Z,86.7
2024-03-30T00:27:29.658Z,86.9
2024-03-30T00:32:29.668Z,87
2024-03-30T00:37:29.811Z,87.4
2024-03-30T00:42:47.171Z,88
2024-03-30T00:47:46.902Z,88.5
2024-03-30T00:53:29.656Z,88.8
2024-03-30T00:58:29.687Z,89.1
2024-03-30T01:03:39.940Z,89.6
2024-03-30T01:08:39.949Z,89.2
2024-03-30T01:13:39.933Z,89
2024-03-30T01:18:40.050Z,88.8
2024-03-30T01:24:29.675Z,89.2
2024-03-30T01:29:29.707Z,89
2024-03-30T01:34:39.933Z,88.4
2024-03-30T01:39:39.944Z,88.3
2024-03-30T01:44:39.958Z,88.9
2024-03-30T01:50:29.685Z,89.3
2024-03-30T01:55:34.147Z,88.4
2024-03-30T02:00:39.942Z,88.7
2024-03-30T02:05:39.980Z,88.7
2024-03-30T02:11:29.683Z,88.3
2024-03-30T02:16:39.939Z,88.4
2024-03-30T02:22:29.440Z,89.6
2024-03-30T02:27:29.721Z,89.9
2024-03-30T02:32:29.835Z,90.2
2024-03-30T02:37:39.707Z,89.6
2024-03-30T02:42:39.804Z,90.4
2024-03-30T02:48:29.531Z,91.4
2024-03-30T02:53:39.742Z,90.6
2024-03-30T02:58:39.743Z,90.5
2024-03-30T03:03:40.227Z,89.9
2024-03-30T03:09:29.476Z,90.1
2024-03-30T03:14:39.932Z,90.1
2024-03-30T03:20:29.472Z,89.3
2024-03-30T03:25:40.378Z,90.1
2024-03-30T03:31:29.473Z,90.1
2024-03-30T03:36:29.493Z,90
2024-03-30T03:41:29.493Z,90
2024-03-30T03:46:29.601Z,89.8
2024-03-30T03:51:29.677Z,89.5
2024-03-30T04:02:29.770Z,88.9
2024-03-30T04:07:39.962Z,88.9
2024-03-30T04:13:39.760Z,88.1
2024-03-30T04:19:29.716Z,88
2024-03-30T04:24:39.762Z,88
2024-03-30T04:29:39.921Z,88.1
2024-03-30T04:35:29.710Z,87.6
2024-03-30T04:40:39.939Z,87.2
2024-03-30T04:46:29.700Z,87
2024-03-30T04:51:39.719Z,86.4
2024-03-30T04:56:39.965Z,86.2
2024-03-30T05:02:29.509Z,85.9
2024-03-30T05:07:29.682Z,86
2024-03-30T05:12:29.708Z,84.9
2024-03-30T05:17:29.712Z,84.5
2024-03-30T05:22:39.990Z,83.9
2024-03-30T05:27:39.984Z,83.6
2024-03-30T05:32:40.030Z,83.3
2024-03-30T05:38:29.661Z,82.8
2024-03-30T05:43:39.970Z,83
2024-03-30T05:49:29.436Z,82.4
2024-03-30T05:54:29.717Z,81.7
2024-03-30T05:59:39.975Z,81.6
2024-03-30T06:04:39.984Z,81.1
2024-03-30T06:10:29.678Z,80.8
2024-03-30T06:15:39.782Z,80
2024-03-30T06:20:39.966Z,79.7
2024-03-30T06:26:29.475Z,78.5
2024-03-30T06:36:29.696Z,77.9
2024-03-30T06:41:29.694Z,77.4
2024-03-30T06:46:39.767Z,77.4
2024-03-30T06:51:39.949Z,77.8
2024-03-30T06:56:40.080Z,77.6
2024-03-30T07:02:29.532Z,78
2024-03-30T07:07:39.952Z,77.1
2024-03-30T07:12:39.960Z,76.7
2024-03-30T07:17:39.960Z,75
2024-03-30T07:23:29.712Z,75.5
2024-03-30T07:28:39.961Z,74.2
2024-03-30T07:34:29.676Z,74
2024-03-30T07:39:29.698Z,73.7
2024-03-30T07:44:39.970Z,75
2024-03-30T07:49:39.968Z,74.6
2024-03-30T07:55:29.684Z,73.4
2024-03-30T08:00:29.725Z,71.3
2024-03-30T08:05:29.703Z,70.3
2024-03-30T08:10:40.028Z,69.5
2024-03-30T08:15:40.261Z,68
2024-03-30T08:21:29.693Z,66.4
2024-03-30T08:26:36.384Z,65.8
2024-03-30T08:31:39.734Z,65.1
2024-03-30T08:36:39.770Z,63.9
2024-03-30T08:42:29.506Z,64.3
2024-03-30T08:47:40.062Z,62.1
2024-03-30T08:53:29.539Z,60.3
2024-03-30T08:58:29.545Z,57.8
2024-03-30T09:03:39.755Z,58
2024-03-30T09:09:31.466Z,57.1
2024-03-30T09:14:29.512Z,57.6
2024-03-30T09:19:39.796Z,56.5
2024-03-30T09:25:29.499Z,56.7
2024-03-30T09:30:39.789Z,57.1
2024-03-30T09:35:39.860Z,56
2024-03-30T09:41:29.505Z,57.6
2024-03-30T09:46:29.590Z,55.9
2024-03-30T09:51:39.742Z,56.2
2024-03-30T09:56:39.811Z,55.6
2024-03-30T10:01:39.877Z,54.6
2024-03-30T10:06:39.880Z,54
2024-03-30T10:12:29.543Z,53.7
2024-03-30T10:17:29.839Z,53.9
2024-03-30T10:22:39.988Z,54.6
2024-03-30T10:28:29.724Z,54.2
2024-03-30T10:33:39.997Z,52.9
2024-03-30T10:39:29.496Z,50.7
2024-03-30T10:44:29.715Z,50.9
2024-03-30T10:49:40.023Z,50.5
2024-03-30T10:55:29.719Z,50
2024-03-30T11:06:29.748Z,50.6
2024-03-30T11:11:39.989Z,51.2
2024-03-30T11:16:40.019Z,52.2
2024-03-30T11:22:29.558Z,52.4
2024-03-30T11:28:29.533Z,53.2
2024-03-30T11:33:29.761Z,54.1
2024-03-30T11:38:41.657Z,53
2024-03-30T11:43:39.807Z,53
2024-03-30T11:48:40.023Z,53.9
2024-03-30T11:54:29.723Z,53.7
2024-03-30T11:59:40.054Z,53.5
2024-03-30T12:05:29.520Z,53.8
2024-03-30T12:11:40.055Z,53.5
2024-03-30T12:17:29.780Z,53.6
2024-03-30T12:22:39.816Z,53.9
2024-03-30T12:27:40.048Z,53.3
2024-03-30T12:33:29.750Z,53.1
2024-03-30T12:38:29.802Z,53.8
2024-03-30T12:43:39.825Z,53.6
2024-03-30T12:49:29.812Z,52.8
2024-03-30T12:54:39.888Z,53.1
2024-03-30T12:59:40.168Z,51.7
2024-03-30T13:05:29.747Z,50.8
2024-03-30T13:10:29.844Z,49.9
2024-03-30T13:15:40.042Z,49.8
2024-03-30T13:20:40.080Z,49.4
2024-03-30T13:26:29.788Z,49.4
2024-03-30T13:31:39.861Z,48.5
2024-03-30T13:41:41.281Z,48.2
2024-03-30T13:46:40.050Z,49.4
2024-03-30T13:52:29.766Z,47.5
2024-03-30T14:02:40.044Z,47.5
2024-03-30T14:08:29.774Z,48.5
2024-03-30T14:13:29.783Z,48.7
2024-03-30T14:18:40.063Z,49.6
2024-03-30T14:23:40.134Z,50.5
2024-03-30T14:29:29.771Z,50.6
2024-03-30T14:34:39.907Z,51.6
2024-03-30T14:39:40.849Z,51.3
2024-03-30T14:45:29.827Z,51.6
2024-03-30T14:50:29.844Z,52.2
2024-03-30T14:55:29.899Z,52.5
2024-03-30T15:00:40.187Z,53
2024-03-30T15:06:30.341Z,54
2024-03-30T15:11:29.582Z,53.2
2024-03-30T15:16:39.866Z,53.4
2024-03-30T15:21:39.943Z,53.8
2024-03-30T15:27:29.524Z,54.3
2024-03-30T15:32:29.577Z,54.4
2024-03-30T15:37:29.609Z,54.6
2024-03-30T15:42:39.881Z,55
2024-03-30T15:47:40.574Z,56
2024-03-30T15:53:29.609Z,57.6
2024-03-30T15:58:29.621Z,57.9
2024-03-30T16:03:39.890Z,57.6
2024-03-30T16:09:29.802Z,57.3
2024-03-30T16:14:39.924Z,58
2024-03-30T16:19:40.076Z,57.9
2024-03-30T16:24:40.096Z,57.3
2024-03-30T16:30:29.830Z,57.7
2024-03-30T16:35:40.069Z,57.7
2024-03-30T16:40:40.082Z,60.5
2024-03-30T16:45:40.088Z,60.7
2024-03-30T16:50:40.103Z,60.6
2024-03-30T16:55:40.087Z,61.2
2024-03-30T17:01:29.909Z,61.9
2024-03-30T17:06:39.876Z,61.2
2024-03-30T17:11:39.893Z,63.2
2024-03-30T17:17:29.820Z,62.7
2024-03-30T17:22:41.624Z,63.4
2024-03-30T17:28:29.801Z,63.4
2024-03-30T17:33:29.833Z,63.7
2024-03-30T17:38:39.873Z,64.4
2024-03-30T17:43:40.113Z,64.8
2024-03-30T17:49:29.800Z,64.6
2024-03-30T17:54:29.810Z,65.1
2024-03-30T17:59:29.867Z,64.7
2024-03-30T18:04:40.055Z,65
2024-03-30T18:09:40.108Z,65.2
2024-03-30T18:14:40.106Z,65.6
2024-03-30T18:19:40.120Z,66
2024-03-30T18:25:29.840Z,66.7
2024-03-30T18:30:40.115Z,66.7
2024-03-30T18:36:29.837Z,67.1
2024-03-30T18:41:29.839Z,68.1
2024-03-30T18:46:40.098Z,69
2024-03-30T18:52:29.680Z,69.8
2024-03-30T18:57:29.828Z,70.9
2024-03-30T19:02:39.949Z,71.6
2024-03-30T19:07:40.105Z,72.6
2024-03-30T19:13:29.639Z,76
2024-03-30T19:18:29.830Z,77
2024-03-30T19:23:29.865Z,76.4
2024-03-30T19:28:39.881Z,75.4
2024-03-30T19:33:40.118Z,74.7
2024-03-30T19:38:40.122Z,74
2024-03-30T19:44:29.918Z,74.1
2024-03-30T19:49:40.121Z,73.4
2024-03-30T19:55:29.675Z,72.6
2024-03-30T20:00:29.685Z,72.4
2024-03-30T20:05:29.808Z,72.3
2024-03-30T20:10:29.831Z,73.2
2024-03-30T20:15:39.922Z,73.3
2024-03-30T20:20:40.112Z,72.7
2024-03-30T20:26:29.833Z,71.5
2024-03-30T20:31:40.112Z,71.9
2024-03-30T20:42:29.842Z,71.6
2024-03-30T20:47:40.078Z,71.3
2024-03-30T20:53:29.791Z,71.5
2024-03-30T20:58:29.799Z,71.5
2024-03-30T21:03:40.092Z,72.2
2024-03-30T21:09:29.671Z,73.2
2024-03-30T21:14:39.909Z,73.3
2024-03-30T21:25:29.743Z,75.1
2024-03-30T21:30:39.932Z,75.5
2024-03-30T21:36:29.613Z,75.7
2024-03-30T21:41:29.600Z,75.7
2024-03-30T21:46:29.642Z,76.5
2024-03-30T21:51:29.729Z,77.2
2024-03-30T22:02:29.580Z,76.9
2024-03-30T22:07:29.666Z,77.6
2024-03-30T22:12:39.895Z,78.4
2024-03-30T22:17:39.966Z,78.6
2024-03-30T22:22:39.921Z,79.3
2024-03-30T22:27:40.005Z,79.5
2024-03-30T22:32:40.118Z,79.1
2024-03-30T22:38:29.912Z,78.8
2024-03-30T22:43:40.139Z,79.8
2024-03-30T22:49:29.852Z,80.3
2024-03-30T22:54:40.103Z,80.4
2024-03-30T23:00:29.657Z,80.7
2024-03-30T23:05:29.868Z,81.4
2024-03-30T23:10:40.123Z,81.7
2024-03-30T23:16:29.816Z,81.8
2024-03-30T23:21:29.846Z,82.3
2024-03-30T23:42:29.848Z,82.6
2024-03-30T23:47:40.096Z,82.2
2024-03-30T23:53:29.864Z,82.7
2024-03-30T23:58:39.941Z,82.3
